createdAt,value
2023-05-01T00:01:50.013Z,64.18
2023-05-01T00:05:30.919Z,64.17
2023-05-01T00:08:49.354Z,64.21
2023-05-01T00:12:30.946Z,64.39
2023-05-01T00:16:17.115Z,64.77
2023-05-01T00:19:42.459Z,65.30
2023-05-01T00:23:20.948Z,65.10
2023-05-01T00:27:01.320Z,65.50
2023-05-01T00:30:53.512Z,65.98
2023-05-01T00:34:14.255Z,66.29
2023-05-01T00:37:52.435Z,66.81
2023-05-01T00:41:30.117Z,66.87
2023-05-01T00:45:16.406Z,67.11
2023-05-01T00:48:44.588Z,67.56
2023-05-01T00:52:30.186Z,67.14
2023-05-01T00:56:16.858Z,67.28
2023-05-01T00:59:37.254Z,67.42
2023-05-01T01:03:15.263Z,67.61
2023-05-01T01:06:57.496Z,67.64
2023-05-01T01:10:53.041Z,68.20
2023-05-01T01:14:12.328Z,68.17
2023-05-01T01:18:08.135Z,68.45
2023-05-01T01:21:27.793Z,68.71
2023-05-01T01:25:27.733Z,68.94
2023-05-01T01:29:30.154Z,68.96
2023-05-01T01:32:28.264Z,69.00
2023-05-01T01:36:17.236Z,69.02
2023-05-01T01:39:54.609Z,69.26
2023-05-01T01:43:28.878Z,69.66
2023-05-01T01:47:09.842Z,69.19
2023-05-01T01:50:45.497Z,69.57
2023-05-01T01:54:51.934Z,69.85
2023-05-01T01:58:00.942Z,69.85
2023-05-01T02:01:52.438Z,69.78
2023-05-01T02:05:16.681Z,69.85
2023-05-01T02:09:20.975Z,70.06
2023-05-01T02:12:57.520Z,70.10
2023-05-01T02:16:18.544Z,69.98
2023-05-01T02:20:12.688Z,69.92
2023-05-01T02:23:42.537Z,70.26
2023-05-01T02:27:15.279Z,70.18
2023-05-01T02:31:04.649Z,70.38
2023-05-01T02:34:37.185Z,70.41
2023-05-01T02:38:01.780Z,70.39
2023-05-01T02:41:47.565Z,70.54
2023-05-01T02:45:33.247Z,70.47
2023-05-01T02:49:10.511Z,70.94
2023-05-01T02:52:48.669Z,70.97
2023-05-01T02:56:26.885Z,71.00
2023-05-01T03:00:03.457Z,71.24
2023-05-01T03:03:40.208Z,71.22
2023-05-01T03:07:51.622Z,71.30
2023-05-01T03:11:02.653Z,71.50
2023-05-01T03:14:38.442Z,71.64
2023-05-01T03:18:31.168Z,71.82
2023-05-01T03:22:11.376Z,71.76
2023-05-01T03:25:42.066Z,72.00
2023-05-01T03:29:24.259Z,72.11
2023-05-01T03:32:55.535Z,72.14
2023-05-01T03:36:35.167Z,72.41
2023-05-01T03:40:26.370Z,72.39
2023-05-01T03:44:07.526Z,72.07
2023-05-01T03:47:25.142Z,72.13
2023-05-01T03:51:01.900Z,72.06
2023-05-01T03:55:01.913Z,71.85
2023-05-01T03:58:24.757Z,71.96
2023-05-01T04:02:01.592Z,71.75
2023-05-01T04:05:47.081Z,71.80
2023-05-01T04:10:00.140Z,71.83
2023-05-01T04:13:27.337Z,72.09
2023-05-01T04:17:15.180Z,72.10
2023-05-01T04:20:25.882Z,71.78
2023-05-01T04:24:01.588Z,71.71
2023-05-01T04:27:46.534Z,71.74
2023-05-01T04:31:22.501Z,71.55
2023-05-01T04:35:09.113Z,71.79
2023-05-01T04:38:48.576Z,71.70
2023-05-01T04:42:39.973Z,71.92
2023-05-01T04:46:17.349Z,72.28
2023-05-01T04:49:41.937Z,72.39
2023-05-01T04:53:26.078Z,72.07
2023-05-01T04:57:03.417Z,72.18
2023-05-01T05:00:49.638Z,71.32
2023-05-01T05:04:09.407Z,70.49
2023-05-01T05:07:50.484Z,69.49
2023-05-01T05:11:24.646Z,68.73
2023-05-01T05:15:02.266Z,67.97
2023-05-01T05:19:04.815Z,66.35
2023-05-01T05:22:16.639Z,65.46
2023-05-01T05:26:40.909Z,64.06
2023-05-01T05:30:22.368Z,63.67
2023-05-01T05:33:49.584Z,62.44
2023-05-01T05:37:33.041Z,61.25
2023-05-01T05:40:55.595Z,60.99
2023-05-01T05:44:36.106Z,59.75
2023-05-01T05:48:27.244Z,59.60
2023-05-01T05:51:49.246Z,58.89
2023-05-01T05:55:25.916Z,58.20
2023-05-01T05:59:07.498Z,57.76
2023-05-01T06:02:49.225Z,56.76
2023-05-01T06:06:19.181Z,55.17
2023-05-01T06:10:01.684Z,55.37
2023-05-01T06:13:50.548Z,55.54
2023-05-01T06:17:15.984Z,54.14
2023-05-01T06:20:49.900Z,51.26
2023-05-01T06:24:39.839Z,45.63
2023-05-01T06:28:05.502Z,42.85
2023-05-01T06:32:00.196Z,39.73
2023-05-01T06:35:47.788Z,38.47
2023-05-01T06:39:02.561Z,35.12
2023-05-01T06:42:46.201Z,33.10
2023-05-01T06:46:17.377Z,31.58
2023-05-01T06:49:51.433Z,29.93
2023-05-01T06:53:27.542Z,29.53
2023-05-01T06:57:20.392Z,28.87
2023-05-01T07:00:48.026Z,28.11
2023-05-01T07:04:47.855Z,27.84
2023-05-01T07:08:31.553Z,27.67
2023-05-01T07:11:58.236Z,27.28
2023-05-01T07:15:42.874Z,26.76
2023-05-01T07:19:04.193Z,26.68
2023-05-01T07:22:58.188Z,25.26
2023-05-01T07:26:20.136Z,25.27
2023-05-01T07:30:14.855Z,25.77
2023-05-01T07:33:34.763Z,24.96
2023-05-01T07:37:29.131Z,25.21
2023-05-01T07:41:05.274Z,25.55
2023-05-01T07:44:27.775Z,25.63
2023-05-01T07:48:26.283Z,25.53
2023-05-01T07:51:53.228Z,25.19
2023-05-01T07:55:26.606Z,25.67
2023-05-01T07:59:08.684Z,26.39
2023-05-01T08:02:37.930Z,27.28
2023-05-01T08:06:12.309Z,28.12
2023-05-01T08:09:59.979Z,29.40
2023-05-01T08:13:36.022Z,29.75
2023-05-01T08:17:21.464Z,30.70
2023-05-01T08:20:58.907Z,30.72
2023-05-01T08:24:44.354Z,31.31
2023-05-01T08:28:30.881Z,31.37
2023-05-01T08:31:51.900Z,31.33
2023-05-01T08:35:33.069Z,32.97
2023-05-01T08:39:12.035Z,33.09
2023-05-01T08:42:43.278Z,32.34
2023-05-01T08:46:34.624Z,32.72
2023-05-01T08:50:14.069Z,32.15
2023-05-01T08:54:02.687Z,33.26
2023-05-01T08:57:37.610Z,33.26
2023-05-01T09:01:01.387Z,32.81
2023-05-01T09:04:38.495Z,32.87
2023-05-01T09:08:14.804Z,33.91
2023-05-01T09:11:50.473Z,33.11
2023-05-01T09:15:33.242Z,34.05
2023-05-01T09:19:35.068Z,33.40
2023-05-01T09:23:03.920Z,33.11
2023-05-01T09:27:01.078Z,33.42
2023-05-01T09:30:12.288Z,33.30
2023-05-01T09:33:59.694Z,33.57
2023-05-01T09:37:52.785Z,32.89
2023-05-01T09:41:12.860Z,33.24
2023-05-01T09:45:13.277Z,32.65
2023-05-01T09:48:55.116Z,33.29
2023-05-01T09:52:16.888Z,34.25
2023-05-01T09:56:01.660Z,34.08
2023-05-01T09:59:35.752Z,32.76
2023-05-01T10:03:16.787Z,33.16
2023-05-01T10:06:38.209Z,33.98
2023-05-01T10:10:24.558Z,33.51
2023-05-01T10:14:10.254Z,33.95
2023-05-01T10:17:47.566Z,33.60
2023-05-01T10:21:17.205Z,32.97
2023-05-01T10:24:46.257Z,32.29
2023-05-01T10:28:41.238Z,33.15
2023-05-01T10:32:00.749Z,33.19
2023-05-01T10:35:38.960Z,32.40
2023-05-01T10:39:34.428Z,32.11
2023-05-01T10:43:19.665Z,34.72
2023-05-01T10:47:03.413Z,33.64
2023-05-01T10:51:12.056Z,32.83
2023-05-01T10:55:37.112Z,31.93
2023-05-01T10:58:59.424Z,32.46
2023-05-01T11:02:26.602Z,32.27
2023-05-01T11:06:14.791Z,31.18
2023-05-01T11:10:28.659Z,32.28
2023-05-01T11:13:58.510Z,32.43
2023-05-01T11:17:49.572Z,32.28
2023-05-01T11:21:08.937Z,32.13
2023-05-01T11:24:45.524Z,31.23
2023-05-01T11:28:09.759Z,32.46
2023-05-01T11:32:04.033Z,31.78
2023-05-01T11:36:01.110Z,30.85
2023-05-01T11:39:01.132Z,31.79
2023-05-01T11:43:05.495Z,31.32
2023-05-01T11:46:28.627Z,31.65
2023-05-01T11:50:35.138Z,30.62
2023-05-01T11:54:15.117Z,31.69
2023-05-01T11:57:27.720Z,31.93
2023-05-01T12:01:36.139Z,30.69
2023-05-01T12:05:17.962Z,30.67
2023-05-01T12:08:49.737Z,31.48
2023-05-01T12:12:22.666Z,31.38
2023-05-01T12:15:53.944Z,30.52
2023-05-01T12:19:49.161Z,30.88
2023-05-01T12:23:37.016Z,30.36
2023-05-01T12:26:36.537Z,30.08
2023-05-01T12:30:25.289Z,29.53
2023-05-01T12:33:58.447Z,30.32
2023-05-01T12:38:03.627Z,28.88
2023-05-01T12:41:39.213Z,29.94
2023-05-01T12:45:09.212Z,29.90
2023-05-01T12:48:35.547Z,29.69
2023-05-01T12:52:35.540Z,29.20
2023-05-01T12:56:23.158Z,29.45
2023-05-01T13:00:01.141Z,29.66
2023-05-01T13:03:27.874Z,29.54
2023-05-01T13:07:14.151Z,29.04
2023-05-01T13:10:44.782Z,28.98
2023-05-01T13:14:23.870Z,29.22
2023-05-01T13:17:44.622Z,29.00
2023-05-01T13:21:47.741Z,29.54
2023-05-01T13:25:19.964Z,29.38
2023-05-01T13:28:38.563Z,28.93
2023-05-01T13:32:42.003Z,29.10
2023-05-01T13:36:03.054Z,28.88
2023-05-01T13:39:38.861Z,28.97
2023-05-01T13:43:35.493Z,28.99
2023-05-01T13:46:53.209Z,29.63
2023-05-01T13:50:54.865Z,29.11
2023-05-01T13:54:26.217Z,29.60
2023-05-01T13:58:08.654Z,28.94
2023-05-01T14:01:31.649Z,29.38
2023-05-01T14:05:11.826Z,30.00
2023-05-01T14:09:05.049Z,29.45
2023-05-01T14:12:27.817Z,30.18
2023-05-01T14:16:23.668Z,30.38
2023-05-01T14:19:54.851Z,30.40
2023-05-01T14:23:25.911Z,29.06
2023-05-01T14:27:26.668Z,29.60
2023-05-01T14:30:49.724Z,29.82
2023-05-01T14:34:53.038Z,29.69
2023-05-01T14:38:11.450Z,29.77
2023-05-01T14:41:43.525Z,29.35
2023-05-01T14:45:41.737Z,29.02
2023-05-01T14:49:05.031Z,28.69
2023-05-01T14:52:32.611Z,28.23
2023-05-01T14:56:32.252Z,28.02
2023-05-01T15:00:15.957Z,27.65
2023-05-01T15:03:43.953Z,27.56
2023-05-01T15:07:35.531Z,27.85
2023-05-01T15:11:03.254Z,27.61
2023-05-01T15:14:29.490Z,28.09
2023-05-01T15:18:30.760Z,28.64
2023-05-01T15:21:41.434Z,27.98
2023-05-01T15:25:27.179Z,28.09
2023-05-01T15:29:23.971Z,28.37
2023-05-01T15:32:51.899Z,28.13
2023-05-01T15:36:12.380Z,28.24
2023-05-01T15:40:10.310Z,27.83
2023-05-01T15:43:45.588Z,28.10
2023-05-01T15:47:22.230Z,28.31
2023-05-01T15:50:43.274Z,28.74
2023-05-01T15:54:21.707Z,29.02
2023-05-01T15:57:58.728Z,28.79
2023-05-01T16:01:54.916Z,28.92
2023-05-01T16:05:29.121Z,28.85
2023-05-01T16:08:52.098Z,28.50
2023-05-01T16:12:30.293Z,28.83
2023-05-01T16:16:23.801Z,29.37
2023-05-01T16:19:46.652Z,29.87
2023-05-01T16:23:42.967Z,30.03
2023-05-01T16:27:27.349Z,30.41
2023-05-01T16:30:52.941Z,30.29
2023-05-01T16:34:21.840Z,30.51
2023-05-01T16:38:09.452Z,30.82
2023-05-01T16:41:31.269Z,30.84
2023-05-01T16:45:23.907Z,31.18
2023-05-01T16:48:50.264Z,31.58
2023-05-01T16:52:41.427Z,31.85
2023-05-01T16:56:28.986Z,31.61
2023-05-01T16:59:39.800Z,31.79
2023-05-01T17:03:36.278Z,31.84
2023-05-01T17:06:53.553Z,32.70
2023-05-01T17:10:41.852Z,32.75
2023-05-01T17:14:16.574Z,33.29
2023-05-01T17:18:10.790Z,33.63
2023-05-01T17:21:50.101Z,33.90
2023-05-01T17:25:19.335Z,34.17
2023-05-01T17:28:47.124Z,34.54
2023-05-01T17:32:40.773Z,34.98
2023-05-01T17:36:04.037Z,34.92
2023-05-01T17:39:41.164Z,34.61
2023-05-01T17:43:35.599Z,34.79
2023-05-01T17:47:05.507Z,35.17
2023-05-01T17:50:43.561Z,35.26
2023-05-01T17:54:31.536Z,35.47
2023-05-01T17:58:03.418Z,36.76
2023-05-01T18:01:53.178Z,37.41
2023-05-01T18:05:19.871Z,38.33
2023-05-01T18:09:07.017Z,39.02
2023-05-01T18:12:46.451Z,39.28
2023-05-01T18:16:24.050Z,39.81
2023-05-01T18:19:33.104Z,40.23
2023-05-01T18:23:20.287Z,40.34
2023-05-01T18:26:55.750Z,41.04
2023-05-01T18:30:33.737Z,41.66
2023-05-01T18:34:27.861Z,42.02
2023-05-01T18:37:48.742Z,42.44
2023-05-01T18:41:30.101Z,42.57
2023-05-01T18:45:20.983Z,42.74
2023-05-01T18:48:59.473Z,43.52
2023-05-01T18:52:37.525Z,43.22
2023-05-01T18:55:57.290Z,43.55
2023-05-01T18:59:35.886Z,43.41
2023-05-01T19:03:24.155Z,43.56
2023-05-01T19:06:50.938Z,43.64
2023-05-01T19:10:38.366Z,43.89
2023-05-01T19:14:05.735Z,43.80
2023-05-01T19:18:01.875Z,44.09
2023-05-01T19:21:38.079Z,44.45
2023-05-01T19:25:00.637Z,44.48
2023-05-01T19:28:54.423Z,44.89
2023-05-01T19:32:14.523Z,44.92
2023-05-01T19:36:10.117Z,45.00
2023-05-01T19:39:30.284Z,44.90
2023-05-01T19:43:24.414Z,44.79
2023-05-01T19:47:02.074Z,44.69
2023-05-01T19:50:23.008Z,44.91
2023-05-01T19:54:15.784Z,45.20
2023-05-01T19:57:53.322Z,45.04
2023-05-01T20:01:16.365Z,44.80
2023-05-01T20:05:27.232Z,45.29
2023-05-01T20:08:48.612Z,45.07
2023-05-01T20:12:17.491Z,45.07
2023-05-01T20:15:57.018Z,44.97
2023-05-01T20:19:24.946Z,44.65
2023-05-01T20:23:22.749Z,44.70
2023-05-01T20:26:53.994Z,44.84
2023-05-01T20:30:16.918Z,44.95
2023-05-01T20:34:22.798Z,44.58
2023-05-01T20:37:43.014Z,44.66
2023-05-01T20:41:19.016Z,45.32
2023-05-01T20:45:11.505Z,46.10
2023-05-01T20:48:32.861Z,46.56
2023-05-01T20:52:27.529Z,46.79
2023-05-01T20:56:05.521Z,47.23
2023-05-01T20:59:35.626Z,47.79
2023-05-01T21:03:18.157Z,48.27
2023-05-01T21:06:41.866Z,48.62
2023-05-01T21:10:36.488Z,48.77
2023-05-01T21:13:56.573Z,49.19
2023-05-01T21:17:36.053Z,49.78
2023-05-01T21:21:11.879Z,50.43
2023-05-01T21:25:00.906Z,50.91
2023-05-01T21:28:46.389Z,50.60
2023-05-01T21:32:05.483Z,50.99
2023-05-01T21:35:57.498Z,51.18
2023-05-01T21:39:24.451Z,50.08
2023-05-01T21:43:25.077Z,50.67
2023-05-01T21:46:46.016Z,50.73
2023-05-01T21:50:23.765Z,50.44
2023-05-01T21:53:49.319Z,50.46
2023-05-01T21:57:33.523Z,50.43
2023-05-01T22:01:18.732Z,51.44
2023-05-01T22:05:31.374Z,50.95
2023-05-01T22:08:55.976Z,50.54
2023-05-01T22:12:17.005Z,50.58
2023-05-01T22:16:12.724Z,50.39
2023-05-01T22:19:45.692Z,50.72
2023-05-01T22:23:17.684Z,50.73
2023-05-01T22:27:03.809Z,50.84
2023-05-01T22:30:57.391Z,50.93
2023-05-01T22:34:21.790Z,51.85
2023-05-01T22:37:53.875Z,51.76
2023-05-01T22:41:39.846Z,51.41
2023-05-01T22:45:16.775Z,51.64
2023-05-01T22:48:57.693Z,51.31
2023-05-01T22:52:48.580Z,51.84
2023-05-01T22:56:26.802Z,51.91
2023-05-01T22:59:48.380Z,51.96
2023-05-01T23:03:26.426Z,51.78
2023-05-01T23:07:21.549Z,53.30
2023-05-01T23:10:43.079Z,53.43
2023-05-01T23:14:46.416Z,53.68
2023-05-01T23:18:24.769Z,53.71
2023-05-01T23:21:41.833Z,53.75
2023-05-01T23:25:28.400Z,53.68
2023-05-01T23:29:05.652Z,54.06
2023-05-01T23:32:59.246Z,54.41
2023-05-01T23:36:31.263Z,54.58
2023-05-01T23:39:58.687Z,54.85
2023-05-01T23:43:58.556Z,55.23
2023-05-01T23:47:41.889Z,54.91
2023-05-01T23:51:17.017Z,54.36
2023-05-01T23:54:55.028Z,55.14
2023-05-01T23:58:13.624Z,55.66
